Latest Weather Observations for Spitfire Channel

IDQ60801

Issued at 12:02 am EST Wednesday 28 January 2015 (issued every 30 minutes, with the page automatically refreshed every 10 minutes)

About weather observations | Map of weather stations | Latest weather observations for QLD | Other Formats
Station Details ID: 040927 Name: SPITFIRE CHANNEL BEACON Lat: -27.05 Lon: 153.27 Height: 7.0 m
Data from the previous 72 hours. | See also: Recent months for locations in Queensland
Date/Time
EST
Temp
°C
App
Temp
°C
Dew
Point
Rel
Hum
%
Delta-T
°C
Wind Press
QNH
hPa
Press
MSL
hPa
Rain
since 9 am
mm
Dir
 
Spd
km/h
Gust
km/h
Spd
kts
Gust
kts
27/11:30pm - - - - - SE 26 32 14 17 - - -
27/11:00pm - - - - - ESE 22 30 12 16 - - -
27/10:30pm - - - - - ESE 20 28 11 15 - - -
27/10:00pm - - - - - ESE 20 24 11 13 - - -
27/09:30pm - - - - - ESE 22 28 12 15 - - -
27/09:00pm - - - - - ESE 22 28 12 15 - - -
27/08:30pm - - - - - ESE 20 26 11 14 - - -
27/08:00pm - - - - - ESE 26 32 14 17 - - -
27/07:30pm - - - - - ESE 24 32 13 17 - - -
27/07:00pm - - - - - ESE 24 30 13 16 - - -
27/06:30pm - - - - - E 26 32 14 17 - - -
27/06:00pm - - - - - E 26 33 14 18 - - -
27/05:30pm - - - - - E 30 33 16 18 - - -
27/05:00pm - - - - - E 30 35 16 19 - - -
27/04:30pm - - - - - E 30 33 16 18 - - -
27/04:00pm - - - - - E 30 37 16 20 - - -
27/03:30pm - - - - - E 32 35 17 19 - - -
27/03:00pm - - - - - E 26 32 14 17 - - -
27/02:30pm - - - - - E 24 28 13 15 - - -
27/02:00pm - - - - - E 24 30 13 16 - - -
27/01:30pm - - - - - E 24 30 13 16 - - -
27/01:00pm - - - - - E 24 28 13 15 - - -
27/12:30pm - - - - - E 26 30 14 16 - - -
27/12:00pm - - - - - ESE 20 26 11 14 - - -
27/11:30am - - - - - E 20 26 11 14 - - -
27/11:00am - - - - - ESE 20 24 11 13 - - -
27/10:30am - - - - - ESE 19 22 10 12 - - -
27/10:00am - - - - - ESE 20 24 11 13 - - -
27/09:30am - - - - - ESE 19 22 10 12 - - -
27/09:00am - - - - - ESE 20 24 11 13 - - -
27/08:30am - - - - - E 22 26 12 14 - - -
27/08:00am - - - - - E 20 26 11 14 - - -
27/07:30am - - - - - E 22 26 12 14 - - -
27/07:00am - - - - - E 20 26 11 14 - - -
27/06:30am - - - - - E 19 20 10 11 - - -
27/06:00am - - - - - E 20 24 11 13 - - -
27/05:30am - - - - - E 20 24 11 13 - - -
27/05:00am - - - - - ESE 20 24 11 13 - - -
27/04:30am - - - - - ESE 22 28 12 15 - - -
27/04:00am - - - - - ESE 24 32 13 17 - - -
27/03:30am - - - - - ESE 24 30 13 16 - - -
27/03:00am - - - - - E 17 24 9 13 - - -
27/02:30am - - - - - E 19 22 10 12 - - -
27/02:00am - - - - - E 17 20 9 11 - - -
27/01:30am - - - - - E 19 20 10 11 - - -
27/01:00am - - - - - ESE 17 20 9 11 - - -
27/12:30am - - - - - E 19 22 10 12 - - -
27/12:00am - - - - - ESE 15 20 8 11 - - -
 
Date/Time
EST
Temp
°C
App
Temp
°C
Dew
Point
Rel
Hum
%
Delta-T
°C
Wind Press
QNH
hPa
Press
MSL
hPa
Rain
since 9 am
mm
Dir
 
Spd
km/h
Gust
km/h
Spd
kts
Gust
kts
26/11:30pm - - - - - E 19 24 10 13 - - -
26/11:00pm - - - - - E 24 30 13 16 - - -
26/10:30pm - - - - - E 26 32 14 17 - - -
26/10:00pm - - - - - ESE 24 32 13 17 - - -
26/09:30pm - - - - - ESE 24 30 13 16 - - -
26/09:00pm - - - - - ESE 26 30 14 16 - - -
26/08:30pm - - - - - ESE 32 39 17 21 - - -
26/08:00pm - - - - - ESE 32 39 17 21 - - -
26/07:30pm - - - - - ESE 30 37 16 20 - - -
26/07:00pm - - - - - ESE 26 33 14 18 - - -
26/06:30pm - - - - - E 24 30 13 16 - - -
26/06:00pm - - - - - ESE 26 32 14 17 - - -
26/05:30pm - - - - - ESE 28 32 15 17 - - -
26/05:00pm - - - - - ESE 24 30 13 16 - - -
26/04:30pm - - - - - ESE 19 24 10 13 - - -
26/04:00pm - - - - - ESE 20 24 11 13 - - -
26/03:30pm - - - - - E 19 22 10 12 - - -
26/03:00pm - - - - - E 19 20 10 11 - - -
26/02:30pm - - - - - ESE 13 15 7 8 - - -
26/02:00pm - - - - - E 19 20 10 11 - - -
26/01:30pm - - - - - ESE 24 26 13 14 - - -
26/01:00pm - - - - - ESE 19 22 10 12 - - -
26/12:30pm - - - - - ESE 17 20 9 11 - - -
26/12:00pm - - - - - E 11 13 6 7 - - -
26/11:30am - - - - - NNE 4 4 2 2 - - -
26/11:00am - - - - - N 6 6 3 3 - - -
26/10:30am - - - - - NNE 4 6 2 3 - - -
26/10:00am - - - - - E 4 6 2 3 - - -
26/09:30am - - - - - SE 6 7 3 4 - - -
26/09:00am - - - - - CALM 0 0 0 0 - - -
26/08:30am - - - - - CALM 0 2 0 1 - - -
26/08:00am - - - - - S 2 4 1 2 - - -
26/07:30am - - - - - CALM 0 0 0 0 - - -
26/07:00am - - - - - CALM 0 0 0 0 - - -
26/06:30am - - - - - ESE 2 2 1 1 - - -
26/06:00am - - - - - E 9 11 5 6 - - -
26/05:30am - - - - - ESE 11 13 6 7 - - -
26/05:00am - - - - - SE 6 9 3 5 - - -
26/04:30am - - - - - CALM 0 2 0 1 - - -
26/04:00am - - - - - ENE 4 7 2 4 - - -
26/03:30am - - - - - CALM 0 0 0 0 - - -
26/03:00am - - - - - CALM 0 0 0 0 - - -
26/02:30am - - - - - NNW 2 6 1 3 - - -
26/02:00am - - - - - NNW 2 6 1 3 - - -
26/01:30am - - - - - N 6 9 3 5 - - -
26/01:00am - - - - - N 13 15 7 8 - - -
26/12:30am - - - - - N 9 13 5 7 - - -
26/12:00am - - - - - NE 9 11 5 6 - - -
 
Date/Time
EST
Temp
°C
App
Temp
°C
Dew
Point
Rel
Hum
%
Delta-T
°C
Wind Press
QNH
hPa
Press
MSL
hPa
Rain
since 9 am
mm
Dir
 
Spd
km/h
Gust
km/h
Spd
kts
Gust
kts
25/11:30pm - - - - - NNW 11 15 6 8 - - -
25/11:00pm - - - - - N 4 6 2 3 - - -
25/10:30pm - - - - - NNE 4 6 2 3 - - -
25/10:00pm - - - - - N 7 9 4 5 - - -
25/09:30pm - - - - - N 7 7 4 4 - - -
25/09:00pm - - - - - N 9 9 5 5 - - -
25/08:30pm - - - - - N 11 13 6 7 - - -
25/08:00pm - - - - - N 17 19 9 10 - - -
25/07:30pm - - - - - N 19 22 10 12 - - -
25/07:00pm - - - - - N 17 20 9 11 - - -
25/06:30pm - - - - - N 17 19 9 10 - - -
25/06:00pm - - - - - N 19 22 10 12 - - -
25/05:30pm - - - - - N 20 22 11 12 - - -
25/05:00pm - - - - - NNE 19 22 10 12 - - -
25/04:30pm - - - - - N 17 20 9 11 - - -
25/04:00pm - - - - - N 19 22 10 12 - - -
25/03:30pm - - - - - N 17 20 9 11 - - -
25/03:00pm - - - - - NNE 20 22 11 12 - - -
25/02:30pm - - - - - NNE 20 22 11 12 - - -
25/02:00pm - - - - - NNE 19 22 10 12 - - -
25/01:30pm - - - - - NNE 19 22 10 12 - - -
25/01:00pm - - - - - N 19 20 10 11 - - -
25/12:30pm - - - - - N 19 20 10 11 - - -
25/12:00pm - - - - - N 20 24 11 13 - - -
25/11:30am - - - - - N 19 20 10 11 - - -
25/11:00am - - - - - N 17 19 9 10 - - -
25/10:30am - - - - - N 13 15 7 8 - - -
25/10:00am - - - - - NNW 13 15 7 8 - - -
25/09:30am - - - - - NNW 13 15 7 8 - - -
25/09:00am - - - - - NNW 15 17 8 9 - - -
25/08:30am - - - - - NNW 13 15 7 8 - - -
25/08:00am - - - - - NW 7 11 4 6 - - -
25/07:30am - - - - - NW 9 11 5 6 - - -
25/07:00am - - - - - WNW 9 9 5 5 - - -
25/06:30am - - - - - WNW 9 13 5 7 - - -
25/06:00am - - - - - NW 11 13 6 7 - - -
25/05:30am - - - - - WNW 9 11 5 6 - - -
25/05:00am - - - - - NW 17 19 9 10 - - -
25/04:30am - - - - - NW 20 24 11 13 - - -
25/04:00am - - - - - NW 17 19 9 10 - - -
25/03:30am - - - - - NW 15 17 8 9 - - -
25/03:00am - - - - - WNW 15 17 8 9 - - -
25/02:30am - - - - - WNW 13 17 7 9 - - -
25/02:00am - - - - - WNW 9 13 5 7 - - -
25/01:30am - - - - - NW 11 13 6 7 - - -
25/01:00am - - - - - WNW 7 9 4 5 - - -
25/12:30am - - - - - WNW 6 7 3 4 - - -

Other Formats:

Comma delimited format used in spreadsheet applications
http://www.bom.gov.au/fwo/IDQ60801/IDQ60801.94581.axf

JavaScript Object Notation format (JSON) in row-major order
http://www.bom.gov.au/fwo/IDQ60801/IDQ60801.94581.json